createdAt,value
2022-11-14T00:02:05.714Z,17.65
2022-11-14T00:05:27.578Z,15.43
2022-11-14T00:08:48.100Z,16.77
2022-11-14T00:12:09.860Z,16.23
2022-11-14T00:15:30.758Z,16.37
2022-11-14T00:18:52.825Z,16.95
2022-11-14T00:22:14.730Z,16.48
2022-11-14T00:25:35.664Z,15.18
2022-11-14T00:28:57.156Z,15.55
2022-11-14T00:32:18.220Z,13.70
2022-11-14T00:35:41.556Z,15.27
2022-11-14T00:39:03.141Z,14.87
2022-11-14T00:42:23.847Z,15.52
2022-11-14T00:45:46.024Z,16.05
2022-11-14T00:49:11.809Z,14.18
2022-11-14T00:52:34.647Z,14.68
2022-11-14T00:55:58.036Z,13.80
2022-11-14T00:59:18.898Z,13.77
2022-11-14T01:02:40.055Z,14.10
2022-11-14T01:06:06.150Z,13.88
2022-11-14T01:09:27.328Z,14.50
2022-11-14T01:12:47.945Z,14.52
2022-11-14T01:16:09.646Z,14.40
2022-11-14T01:19:32.787Z,13.48
2022-11-14T01:22:53.304Z,14.30
2022-11-14T01:26:14.505Z,14.73
2022-11-14T01:29:35.231Z,14.75
2022-11-14T01:32:56.034Z,14.30
2022-11-14T01:36:20.561Z,13.75
2022-11-14T01:39:41.590Z,14.23
2022-11-14T01:43:11.452Z,14.32
2022-11-14T01:46:38.872Z,14.07
2022-11-14T01:50:02.073Z,13.52
2022-11-14T01:53:23.392Z,13.80
2022-11-14T01:56:48.161Z,14.35
2022-11-14T02:00:13.647Z,13.82
2022-11-14T02:03:38.576Z,13.05
2022-11-14T02:07:03.868Z,12.45
2022-11-14T02:10:24.650Z,13.02
2022-11-14T02:13:45.672Z,13.25
2022-11-14T02:20:47.169Z,13.45
2022-11-14T02:24:12.060Z,13.93
2022-11-14T02:27:34.003Z,13.43
2022-11-14T02:30:55.097Z,14.38
2022-11-14T02:34:19.939Z,13.10
2022-11-14T02:37:41.640Z,12.98
2022-11-14T02:41:03.050Z,13.73
2022-11-14T02:44:23.947Z,13.40
2022-11-14T02:47:44.749Z,12.37
2022-11-14T02:51:05.783Z,13.00
2022-11-14T02:54:26.767Z,12.55
2022-11-14T02:57:47.487Z,12.55
2022-11-14T03:01:20.163Z,12.70
2022-11-14T03:04:41.204Z,12.05
2022-11-14T03:08:02.041Z,11.50
2022-11-14T03:11:23.072Z,11.43
2022-11-14T03:14:43.900Z,11.30
2022-11-14T03:18:04.713Z,10.25
2022-11-14T03:21:25.438Z,10.82
2022-11-14T03:24:48.781Z,10.40
2022-11-14T03:28:09.536Z,11.27
2022-11-14T03:31:30.472Z,11.70
2022-11-14T03:34:53.508Z,11.88
2022-11-14T03:38:16.681Z,12.30
2022-11-14T03:41:37.365Z,11.00
2022-11-14T03:45:00.527Z,10.88
2022-11-14T03:48:21.085Z,11.45
2022-11-14T03:51:43.057Z,11.70
2022-11-14T03:55:04.114Z,10.90
2022-11-14T03:58:24.852Z,10.90
2022-11-14T04:01:45.752Z,10.02
2022-11-14T04:05:07.227Z,10.88
2022-11-14T04:08:28.299Z,11.07
2022-11-14T04:11:49.555Z,10.15
2022-11-14T04:15:10.786Z,10.35
2022-11-14T04:18:32.009Z,10.90
2022-11-14T04:21:52.995Z,11.20
2022-11-14T04:25:13.958Z,10.75
2022-11-14T04:28:34.818Z,10.90
2022-11-14T04:31:55.961Z,10.60
2022-11-14T04:35:16.902Z,10.48
2022-11-14T04:38:39.389Z,10.43
2022-11-14T04:42:00.159Z,9.90
2022-11-14T04:45:21.054Z,10.93
2022-11-14T04:48:41.769Z,10.43
2022-11-14T04:52:03.131Z,10.70
2022-11-14T04:55:23.891Z,10.35
2022-11-14T04:58:44.922Z,10.00
2022-11-14T05:02:05.631Z,10.50
2022-11-14T05:05:26.637Z,10.25
2022-11-14T05:08:49.801Z,10.57
2022-11-14T05:12:10.591Z,10.73
2022-11-14T05:15:34.276Z,10.75
2022-11-14T05:18:55.317Z,9.98
2022-11-14T05:22:15.895Z,10.38
2022-11-14T05:25:38.780Z,11.25
2022-11-14T05:28:59.257Z,13.62
2022-11-14T05:32:27.900Z,12.10
2022-11-14T05:35:48.475Z,10.30
2022-11-14T05:39:10.559Z,10.45
2022-11-14T05:42:31.668Z,10.77
2022-11-14T05:45:52.579Z,10.80
2022-11-14T05:49:19.289Z,10.63
2022-11-14T05:52:42.281Z,10.27
2022-11-14T05:56:05.464Z,10.20
2022-11-14T05:59:26.136Z,10.68
2022-11-14T06:02:47.054Z,10.70
2022-11-14T06:06:09.719Z,11.10
2022-11-14T06:09:30.408Z,10.77
2022-11-14T06:12:51.425Z,11.07
2022-11-14T06:16:14.249Z,10.40
2022-11-14T06:19:35.064Z,10.63
2022-11-14T06:22:55.563Z,10.75
2022-11-14T06:26:30.185Z,13.10
2022-11-14T06:29:50.766Z,13.45
2022-11-14T06:33:11.781Z,10.63
2022-11-14T06:36:32.591Z,10.50
2022-11-14T06:39:53.398Z,10.65
2022-11-14T06:43:14.226Z,10.77
2022-11-14T06:46:35.236Z,10.98
2022-11-14T06:49:56.095Z,11.32
2022-11-14T06:53:17.171Z,11.32
2022-11-14T06:56:38.314Z,10.90
2022-11-14T06:59:59.183Z,10.80
2022-11-14T07:03:20.006Z,11.85
2022-11-14T07:06:40.748Z,11.93
2022-11-14T07:10:01.601Z,12.10
2022-11-14T07:13:22.362Z,11.73
2022-11-14T07:16:43.260Z,11.40
2022-11-14T07:20:04.577Z,12.05
2022-11-14T07:23:25.707Z,11.48
2022-11-14T07:26:46.631Z,11.68
2022-11-14T07:30:07.868Z,11.63
2022-11-14T07:33:29.961Z,11.48
2022-11-14T07:36:50.871Z,12.60
2022-11-14T07:40:12.131Z,12.40
2022-11-14T07:43:33.081Z,11.65
2022-11-14T07:46:53.716Z,12.52
2022-11-14T07:50:19.178Z,13.50
2022-11-14T07:53:41.477Z,12.05
2022-11-14T07:57:02.212Z,12.85
2022-11-14T08:00:23.092Z,13.02
2022-11-14T08:03:46.228Z,12.95
2022-11-14T08:07:07.348Z,14.13
2022-11-14T08:10:33.836Z,13.30
2022-11-14T08:13:54.800Z,12.43
2022-11-14T08:17:16.404Z,13.23
2022-11-14T08:20:37.241Z,13.50
2022-11-14T08:24:06.982Z,14.68
2022-11-14T08:27:28.236Z,14.48
2022-11-14T08:30:49.092Z,14.73
2022-11-14T08:34:10.027Z,14.07
2022-11-14T08:37:30.908Z,14.73
2022-11-14T08:40:51.617Z,14.70
2022-11-14T08:44:12.392Z,15.05
2022-11-14T08:47:33.379Z,13.88
2022-11-14T08:50:54.126Z,14.50
2022-11-14T08:54:16.890Z,14.50
2022-11-14T08:57:37.898Z,14.25
2022-11-14T09:01:03.791Z,14.13
2022-11-14T09:04:24.673Z,16.10
2022-11-14T09:07:45.351Z,14.93
2022-11-14T09:11:08.402Z,14.02
2022-11-14T09:14:30.997Z,14.95
2022-11-14T09:17:56.252Z,16.05
2022-11-14T09:21:16.871Z,16.15
2022-11-14T09:24:40.065Z,16.10
2022-11-14T09:28:04.725Z,15.90
2022-11-14T09:31:25.264Z,14.20
2022-11-14T09:34:46.248Z,14.63
2022-11-14T09:38:09.128Z,14.50
2022-11-14T09:41:53.157Z,14.57
2022-11-14T09:45:16.261Z,14.63
2022-11-14T09:48:37.066Z,14.43
2022-11-14T09:52:20.884Z,14.82
2022-11-14T09:55:41.540Z,14.75
2022-11-14T09:59:02.403Z,14.18
2022-11-14T10:02:57.014Z,15.00
2022-11-14T10:06:35.925Z,15.43
2022-11-14T10:10:24.923Z,14.95
2022-11-14T10:14:06.825Z,14.40
2022-11-14T10:17:39.904Z,15.13
2022-11-14T10:21:22.171Z,15.40
2022-11-14T10:24:52.428Z,14.65
2022-11-14T10:28:28.420Z,14.93
2022-11-14T10:32:11.786Z,14.60
2022-11-14T10:35:41.793Z,15.30
2022-11-14T10:39:21.202Z,15.63
2022-11-14T10:42:47.240Z,15.60
2022-11-14T10:46:22.948Z,15.10
2022-11-14T10:49:46.819Z,15.25
2022-11-14T10:53:21.325Z,14.80
2022-11-14T10:56:58.777Z,15.00
2022-11-14T11:00:23.021Z,15.32
2022-11-14T11:04:11.393Z,15.20
2022-11-14T11:07:50.821Z,15.07
2022-11-14T11:11:31.869Z,15.82
2022-11-14T11:15:16.503Z,16.92
2022-11-14T11:18:37.780Z,15.95
2022-11-14T11:21:58.620Z,16.02
2022-11-14T11:25:25.577Z,15.10
2022-11-14T11:29:03.996Z,15.45
2022-11-14T11:32:35.709Z,14.68
2022-11-14T11:36:03.667Z,14.38
2022-11-14T11:39:29.465Z,14.75
2022-11-14T11:43:36.849Z,14.60
2022-11-14T11:46:57.048Z,14.85
2022-11-14T11:50:21.047Z,20.17
2022-11-14T11:53:46.721Z,16.00
2022-11-14T11:57:20.095Z,15.32
2022-11-14T12:00:43.422Z,14.63
2022-11-14T12:04:04.672Z,14.27
2022-11-14T12:07:43.097Z,13.98
2022-11-14T12:11:09.406Z,13.45
2022-11-14T12:14:30.087Z,12.30
2022-11-14T12:18:18.079Z,12.20
2022-11-14T12:21:58.550Z,11.63
2022-11-14T12:25:35.260Z,10.90
2022-11-14T12:29:22.638Z,11.20
2022-11-14T12:32:55.643Z,11.20
2022-11-14T12:36:16.757Z,11.38
2022-11-14T12:39:37.557Z,10.60
2022-11-14T12:43:03.484Z,10.10
2022-11-14T12:46:24.542Z,10.27
2022-11-14T12:49:48.916Z,10.30
2022-11-14T12:53:37.965Z,9.15
2022-11-14T12:57:03.914Z,10.15
2022-11-14T13:00:25.362Z,9.45
2022-11-14T13:04:04.158Z,10.57
2022-11-14T13:07:54.316Z,10.52
2022-11-14T13:11:52.404Z,8.50
2022-11-14T13:15:53.200Z,7.97
2022-11-14T13:19:40.186Z,9.82
2022-11-14T13:23:02.099Z,8.95
2022-11-14T13:26:26.148Z,9.38
2022-11-14T13:29:48.779Z,8.85
2022-11-14T13:33:09.565Z,8.13
2022-11-14T13:36:55.951Z,9.57
2022-11-14T13:40:47.815Z,9.30
2022-11-14T13:44:30.412Z,10.02
2022-11-14T13:48:11.744Z,9.55
2022-11-14T13:51:43.334Z,8.95
2022-11-14T13:55:06.099Z,8.88
2022-11-14T13:58:54.899Z,9.35
2022-11-14T14:02:21.448Z,9.35
2022-11-14T14:06:06.206Z,9.38
2022-11-14T14:09:54.859Z,10.15
2022-11-14T14:13:44.610Z,9.50
2022-11-14T14:17:20.306Z,8.90
2022-11-14T14:21:12.314Z,8.73
2022-11-14T14:24:36.399Z,9.55
2022-11-14T14:28:34.119Z,9.25
2022-11-14T14:32:11.512Z,8.80
2022-11-14T14:35:40.107Z,9.05
2022-11-14T14:39:26.291Z,9.23
2022-11-14T14:42:47.211Z,9.23
2022-11-14T14:46:08.534Z,9.50
2022-11-14T14:49:37.077Z,9.98
2022-11-14T14:53:00.263Z,12.57
2022-11-14T14:56:26.018Z,11.85
2022-11-14T14:59:46.994Z,13.10
2022-11-14T15:03:10.948Z,12.57
2022-11-14T15:06:35.171Z,13.55
2022-11-14T15:10:01.993Z,13.50
2022-11-14T15:13:24.138Z,14.15
2022-11-14T15:16:46.961Z,13.80
2022-11-14T15:20:25.531Z,14.85
2022-11-14T15:23:46.499Z,14.10
2022-11-14T15:27:18.876Z,15.80
2022-11-14T15:30:39.616Z,14.45
2022-11-14T15:34:04.039Z,14.25
2022-11-14T15:37:24.986Z,14.10
2022-11-14T15:41:33.714Z,14.15
2022-11-14T15:44:55.481Z,15.23
2022-11-14T15:48:19.257Z,15.30
2022-11-14T15:52:00.093Z,14.67
2022-11-14T15:55:23.583Z,16.30
2022-11-14T15:58:49.217Z,14.90
2022-11-14T16:02:16.450Z,15.40
2022-11-14T16:05:37.088Z,14.85
2022-11-14T16:08:58.155Z,14.60
2022-11-14T16:12:18.801Z,15.63
2022-11-14T16:15:39.454Z,16.12
2022-11-14T16:19:00.345Z,15.75
2022-11-14T16:22:21.251Z,15.57
2022-11-14T16:25:42.214Z,15.55
2022-11-14T16:29:03.100Z,15.85
2022-11-14T16:32:27.143Z,15.45
2022-11-14T16:35:48.085Z,15.30
2022-11-14T16:39:11.451Z,16.17
2022-11-14T16:42:32.451Z,16.05
2022-11-14T16:45:53.364Z,15.93
2022-11-14T16:49:16.550Z,15.93
2022-11-14T16:52:39.277Z,16.17
2022-11-14T16:55:59.795Z,16.77
2022-11-14T16:59:20.600Z,16.73
2022-11-14T17:02:41.437Z,17.75
2022-11-14T17:06:02.500Z,18.73
2022-11-14T17:09:23.367Z,18.83
2022-11-14T17:12:44.656Z,18.20
2022-11-14T17:16:05.865Z,18.87
2022-11-14T17:19:26.732Z,18.77
2022-11-14T17:22:47.530Z,19.52
2022-11-14T17:26:11.203Z,19.45
2022-11-14T17:29:31.594Z,19.30
2022-11-14T17:32:56.463Z,19.60
2022-11-14T17:36:17.861Z,20.52
2022-11-14T17:39:38.618Z,21.48
2022-11-14T17:42:59.552Z,23.02
2022-11-14T17:46:21.441Z,20.37
2022-11-14T17:49:42.403Z,20.52
2022-11-14T17:53:03.118Z,19.85
2022-11-14T17:56:25.408Z,20.75
2022-11-14T17:59:46.905Z,19.65
2022-11-14T18:03:07.440Z,20.40
2022-11-14T18:06:28.394Z,19.85
2022-11-14T18:09:49.393Z,20.48
2022-11-14T18:13:10.984Z,19.37
2022-11-14T18:16:57.615Z,20.62
2022-11-14T18:20:12.702Z,20.27
2022-11-14T18:23:35.263Z,19.75
2022-11-14T18:26:56.229Z,19.62
2022-11-14T18:30:40.275Z,19.55
2022-11-14T18:33:58.444Z,20.83
2022-11-14T18:37:19.374Z,18.83
2022-11-14T18:40:43.746Z,16.92
2022-11-14T18:44:05.350Z,18.90
2022-11-14T18:47:26.133Z,18.98
2022-11-14T18:50:47.019Z,18.65
2022-11-14T18:54:16.337Z,18.25
2022-11-14T18:57:37.101Z,18.40
2022-11-14T19:00:57.884Z,19.90
2022-11-14T19:04:19.771Z,19.58
2022-11-14T19:07:40.669Z,21.25
2022-11-14T19:11:06.893Z,20.73
2022-11-14T19:14:28.203Z,22.35
2022-11-14T19:17:48.938Z,21.23
2022-11-14T19:21:10.709Z,23.33
2022-11-14T19:24:32.529Z,21.62
2022-11-14T19:27:53.131Z,22.17
2022-11-14T19:31:14.108Z,22.45
2022-11-14T19:34:34.989Z,21.67
2022-11-14T19:37:55.972Z,22.33
2022-11-14T19:41:23.099Z,22.40
2022-11-14T19:44:44.237Z,23.20
2022-11-14T19:48:06.051Z,22.75
2022-11-14T19:51:28.525Z,21.33
2022-11-14T19:54:49.262Z,22.37
2022-11-14T19:58:10.117Z,23.05
2022-11-14T20:01:30.907Z,22.85
2022-11-14T20:04:51.811Z,22.85
2022-11-14T20:08:12.516Z,22.75
2022-11-14T20:11:34.044Z,20.48
2022-11-14T20:14:54.869Z,22.60
2022-11-14T20:18:15.606Z,36.25
2022-11-14T20:21:36.519Z,23.42
2022-11-14T20:24:57.365Z,23.23
2022-11-14T20:28:18.503Z,23.05
2022-11-14T20:31:39.033Z,23.35
2022-11-14T20:35:02.832Z,24.45
2022-11-14T20:38:23.668Z,27.50
2022-11-14T20:41:45.227Z,27.25
2022-11-14T20:45:06.097Z,28.02
2022-11-14T20:48:30.301Z,27.77
2022-11-14T20:51:50.935Z,28.20
2022-11-14T20:55:12.114Z,27.13
2022-11-14T20:58:34.687Z,28.20
2022-11-14T21:01:55.425Z,27.73
2022-11-14T21:05:16.300Z,28.23
2022-11-14T21:08:37.660Z,26.90
2022-11-14T21:11:58.146Z,24.85
2022-11-14T21:15:19.060Z,23.77
2022-11-14T21:18:45.232Z,22.87
2022-11-14T21:22:08.370Z,21.67
2022-11-14T21:25:30.302Z,22.77
2022-11-14T21:28:53.926Z,22.27
2022-11-14T21:32:14.466Z,22.17
2022-11-14T21:35:35.966Z,20.77
2022-11-14T21:38:57.207Z,20.48
2022-11-14T21:42:18.852Z,19.42
2022-11-14T21:45:40.074Z,18.60
2022-11-14T21:49:01.059Z,20.20
2022-11-14T21:52:22.130Z,19.87
2022-11-14T21:55:43.687Z,20.27
2022-11-14T21:59:15.969Z,20.23
2022-11-14T22:02:55.738Z,20.75
2022-11-14T22:06:16.546Z,19.65
2022-11-14T22:09:42.584Z,20.20
2022-11-14T22:13:05.836Z,18.27
2022-11-14T22:16:26.671Z,17.37
2022-11-14T22:19:47.606Z,17.55
2022-11-14T22:23:08.531Z,16.55
2022-11-14T22:26:29.639Z,16.30
2022-11-14T22:29:50.167Z,16.10
2022-11-14T22:33:10.881Z,14.73
2022-11-14T22:36:32.009Z,15.60
2022-11-14T22:39:52.764Z,15.15
2022-11-14T22:43:13.673Z,15.68
2022-11-14T22:46:34.904Z,15.38
2022-11-14T22:49:55.437Z,15.70
2022-11-14T22:53:16.096Z,16.50
2022-11-14T22:56:36.889Z,16.87
2022-11-14T22:59:57.790Z,16.00
2022-11-14T23:03:20.888Z,15.13
2022-11-14T23:06:41.452Z,15.13
2022-11-14T23:10:04.665Z,14.77
2022-11-14T23:13:25.336Z,16.37
2022-11-14T23:16:46.222Z,15.45
2022-11-14T23:20:11.080Z,15.90
2022-11-14T23:23:34.840Z,16.02
2022-11-14T23:26:55.878Z,15.90
2022-11-14T23:30:16.660Z,15.95
2022-11-14T23:33:37.618Z,16.52
2022-11-14T23:36:58.214Z,16.90
2022-11-14T23:40:19.190Z,14.87
2022-11-14T23:43:40.100Z,16.42
2022-11-14T23:47:01.043Z,16.08
2022-11-14T23:50:22.018Z,17.30
2022-11-14T23:53:42.862Z,15.75
2022-11-14T23:57:04.782Z,16.17
